createdAt,value
2023-04-02T00:00:28.980Z,9.242337
2023-04-02T00:01:28.967Z,9.242167
2023-04-02T00:02:29.035Z,9.242230
2023-04-02T00:03:28.982Z,9.242391
2023-04-02T00:04:28.947Z,9.242207
2023-04-02T00:05:28.946Z,9.242368
2023-04-02T00:06:28.918Z,9.242197
2023-04-02T00:07:28.905Z,9.242237
2023-04-02T00:08:28.905Z,9.242481
2023-04-02T00:09:28.930Z,9.242429
2023-04-02T00:10:28.898Z,9.242432
2023-04-02T00:11:28.904Z,9.242467
2023-04-02T00:12:28.881Z,9.242465
2023-04-02T00:13:28.876Z,9.242447
2023-04-02T00:14:28.889Z,9.242414
2023-04-02T00:15:28.858Z,9.242440
2023-04-02T00:16:28.878Z,9.242406
2023-04-02T00:17:28.835Z,9.242402
2023-04-02T00:18:28.904Z,9.242360
2023-04-02T00:19:28.876Z,9.242337
2023-04-02T00:20:28.824Z,9.242358
2023-04-02T00:21:28.828Z,9.242386
2023-04-02T00:22:28.812Z,9.242416
2023-04-02T00:23:28.807Z,9.242477
2023-04-02T00:24:28.853Z,9.242414
2023-04-02T00:25:28.805Z,9.242415
2023-04-02T00:26:28.789Z,9.242443
2023-04-02T00:27:28.783Z,9.242398
2023-04-02T00:28:28.773Z,9.242481
2023-04-02T00:29:28.786Z,9.242447
2023-04-02T00:30:28.760Z,9.242464
2023-04-02T00:31:28.779Z,9.242475
2023-04-02T00:32:28.766Z,9.242476
2023-04-02T00:33:28.733Z,9.242332
2023-04-02T00:34:28.785Z,9.242413
2023-04-02T00:35:28.720Z,9.242460
2023-04-02T00:36:28.715Z,9.242400
2023-04-02T00:37:28.739Z,9.242473
2023-04-02T00:38:28.737Z,9.242433
2023-04-02T00:39:28.743Z,9.242483
2023-04-02T00:40:28.697Z,9.242461
2023-04-02T00:41:28.686Z,9.242465
2023-04-02T00:42:28.669Z,9.242449
2023-04-02T00:43:28.683Z,9.242537
2023-04-02T00:44:28.677Z,9.242495
2023-04-02T00:45:28.666Z,9.242501
2023-04-02T00:46:28.666Z,9.242540
2023-04-02T00:47:28.702Z,9.242461
2023-04-02T00:48:28.628Z,9.242457
2023-04-02T00:49:28.680Z,9.242451
2023-04-02T00:50:28.616Z,9.242492
2023-04-02T00:51:28.623Z,9.242487
2023-04-02T00:52:29.606Z,9.242471
2023-04-02T00:53:28.632Z,9.242353
2023-04-02T00:54:28.607Z,9.242399
2023-04-02T00:55:28.597Z,9.242414
2023-04-02T00:56:28.574Z,9.242439
2023-04-02T00:57:28.648Z,9.242398
2023-04-02T00:58:28.567Z,9.242382
2023-04-02T00:59:28.586Z,9.242376
2023-04-02T01:00:28.571Z,9.242396
2023-04-02T01:01:28.643Z,9.242481
2023-04-02T01:02:28.726Z,9.242458
2023-04-02T01:03:28.754Z,9.242481
2023-04-02T01:04:28.578Z,9.242451
2023-04-02T01:05:28.516Z,9.242442
2023-04-02T01:06:28.506Z,9.242432
2023-04-02T01:07:28.516Z,9.242426
2023-04-02T01:08:28.486Z,9.242410
2023-04-02T01:09:28.504Z,9.242450
2023-04-02T01:10:28.499Z,9.242489
2023-04-02T01:11:28.513Z,9.242441
2023-04-02T01:12:28.461Z,9.242397
2023-04-02T01:13:28.462Z,9.242440
2023-04-02T01:14:28.438Z,9.242407
2023-04-02T01:15:28.463Z,9.242432
2023-04-02T01:16:28.462Z,9.242384
2023-04-02T01:17:28.464Z,9.242460
2023-04-02T01:18:28.428Z,9.242423
2023-04-02T01:19:28.438Z,9.242411
2023-04-02T01:20:28.412Z,9.242430
2023-04-02T01:21:28.415Z,9.242439
2023-04-02T01:22:28.399Z,9.242422
2023-04-02T01:23:28.393Z,9.242382
2023-04-02T01:24:28.398Z,9.242413
2023-04-02T01:25:28.381Z,9.242412
2023-04-02T01:26:28.375Z,9.242461
2023-04-02T01:27:28.355Z,9.242411
2023-04-02T01:28:28.346Z,9.242355
2023-04-02T01:29:28.371Z,9.242391
2023-04-02T01:30:28.350Z,9.242381
2023-04-02T01:31:28.346Z,9.242393
2023-04-02T01:32:28.358Z,9.242388
2023-04-02T01:33:28.322Z,9.242422
2023-04-02T01:34:28.335Z,9.242413
2023-04-02T01:35:28.292Z,9.242431
2023-04-02T01:36:28.299Z,9.242366
2023-04-02T01:37:28.281Z,9.242393
2023-04-02T01:38:28.289Z,9.242363
2023-04-02T01:39:28.294Z,9.242271
2023-04-02T01:40:28.272Z,9.242208
2023-04-02T01:41:28.263Z,9.242326
2023-04-02T01:42:28.276Z,9.242360
2023-04-02T01:43:28.253Z,9.242351
2023-04-02T01:44:28.232Z,9.242351
2023-04-02T01:45:28.244Z,9.242352
2023-04-02T01:46:28.274Z,9.242389
2023-04-02T01:47:28.239Z,9.242357
2023-04-02T01:48:28.199Z,9.242389
2023-04-02T01:49:28.221Z,9.242372
2023-04-02T01:50:28.196Z,9.242329
2023-04-02T01:51:28.189Z,9.242316
2023-04-02T01:52:28.171Z,9.242315
2023-04-02T01:53:28.197Z,9.242334
2023-04-02T01:54:28.161Z,9.242350
2023-04-02T01:55:28.173Z,9.242333
2023-04-02T01:56:28.157Z,9.242334
2023-04-02T01:57:28.150Z,9.242316
2023-04-02T01:58:28.139Z,9.242334
2023-04-02T01:59:28.123Z,9.242350
2023-04-02T02:00:28.197Z,9.242318
2023-04-02T02:01:28.114Z,9.242340
2023-04-02T02:02:28.189Z,9.242313
2023-04-02T02:03:28.111Z,9.242362
2023-04-02T02:04:28.080Z,9.242352
2023-04-02T02:05:28.129Z,9.242341
2023-04-02T02:06:28.107Z,9.242337
2023-04-02T02:07:28.090Z,9.242367
2023-04-02T02:08:28.101Z,9.242313
2023-04-02T02:09:28.063Z,9.242379
2023-04-02T02:10:28.090Z,9.242358
2023-04-02T02:11:28.051Z,9.242357
2023-04-02T02:12:28.087Z,9.242345
2023-04-02T02:13:28.041Z,9.242312
2023-04-02T02:14:28.027Z,9.242330
2023-04-02T02:15:29.030Z,9.242395
2023-04-02T02:16:28.042Z,9.242363
2023-04-02T02:17:28.040Z,9.242372
2023-04-02T02:18:28.020Z,9.242389
2023-04-02T02:19:27.998Z,9.242374
2023-04-02T02:20:28.080Z,9.242368
2023-04-02T02:21:27.985Z,9.242345
2023-04-02T02:22:28.969Z,9.242249
2023-04-02T02:23:27.963Z,9.242356
2023-04-02T02:24:27.985Z,9.242383
2023-04-02T02:25:28.859Z,9.242392
2023-04-02T02:26:27.951Z,9.242391
2023-04-02T02:27:27.949Z,9.242330
2023-04-02T02:28:27.973Z,9.242281
2023-04-02T02:29:27.911Z,9.242330
2023-04-02T02:30:27.914Z,9.242283
2023-04-02T02:31:27.989Z,9.242291
2023-04-02T02:32:27.928Z,9.242400
2023-04-02T02:33:27.928Z,9.242457
2023-04-02T02:34:27.901Z,9.242386
2023-04-02T02:35:28.938Z,9.242300
2023-04-02T02:36:27.972Z,9.242287
2023-04-02T02:37:27.883Z,9.242302
2023-04-02T02:38:27.872Z,9.242356
2023-04-02T02:39:27.883Z,9.242307
2023-04-02T02:40:27.877Z,9.242314
2023-04-02T02:41:27.858Z,9.242425
2023-04-02T02:42:27.832Z,9.242337
2023-04-02T02:43:27.842Z,9.242325
2023-04-02T02:44:27.842Z,9.242357
2023-04-02T02:45:27.840Z,9.242405
2023-04-02T02:46:27.862Z,9.242319
2023-04-02T02:47:27.837Z,9.242326
2023-04-02T02:48:27.801Z,9.242365
2023-04-02T02:49:27.789Z,9.242399
2023-04-02T02:50:27.801Z,9.242286
2023-04-02T02:51:27.774Z,9.242353
2023-04-02T02:52:27.749Z,9.242325
2023-04-02T02:53:27.768Z,9.242407
2023-04-02T02:54:27.750Z,9.242359
2023-04-02T02:55:27.780Z,9.242359
2023-04-02T02:56:27.719Z,9.242349
2023-04-02T02:57:27.788Z,9.242304
2023-04-02T02:58:27.719Z,9.242167
2023-04-02T02:59:27.733Z,9.242296
2023-04-02T03:00:27.708Z,9.242391
2023-04-02T03:01:27.747Z,9.242332
2023-04-02T03:02:27.740Z,9.242314
2023-04-02T03:03:27.783Z,9.242405
2023-04-02T03:04:27.742Z,9.242454
2023-04-02T03:05:27.701Z,9.242430
2023-04-02T03:06:27.650Z,9.242285
2023-04-02T03:07:27.666Z,9.242340
2023-04-02T03:08:27.644Z,9.242325
2023-04-02T03:09:27.637Z,9.242254
2023-04-02T03:10:27.662Z,9.242178
2023-04-02T03:11:27.618Z,9.242361
2023-04-02T03:12:27.621Z,9.242353
2023-04-02T03:13:27.622Z,9.242419
2023-04-02T03:14:27.618Z,9.242418
2023-04-02T03:15:27.661Z,9.242416
2023-04-02T03:16:27.594Z,9.242316
2023-04-02T03:17:27.583Z,9.242347
2023-04-02T03:18:27.551Z,9.242505
2023-04-02T03:19:27.551Z,9.242390
2023-04-02T03:20:27.589Z,9.242424
2023-04-02T03:21:27.566Z,9.242406
2023-04-02T03:22:27.589Z,9.242402
2023-04-02T03:23:27.534Z,9.242295
2023-04-02T03:24:27.529Z,9.242240
2023-04-02T03:25:27.531Z,9.242261
2023-04-02T03:26:27.521Z,9.242365
2023-04-02T03:27:27.522Z,9.242119
2023-04-02T03:28:27.515Z,9.242222
2023-04-02T03:29:27.520Z,9.242344
2023-04-02T03:30:27.490Z,9.242220
2023-04-02T03:31:27.540Z,9.242387
2023-04-02T03:32:27.574Z,9.242363
2023-04-02T03:33:27.516Z,9.242391
2023-04-02T03:34:27.688Z,9.242387
2023-04-02T03:35:27.472Z,9.242371
2023-04-02T03:36:27.456Z,9.242322
2023-04-02T03:37:27.448Z,9.242400
2023-04-02T03:38:27.440Z,9.242455
2023-04-02T03:39:27.436Z,9.242392
2023-04-02T03:40:27.449Z,9.242371
2023-04-02T03:41:27.422Z,9.242414
2023-04-02T03:42:27.416Z,9.242405
2023-04-02T03:43:27.376Z,9.242336
2023-04-02T03:44:27.497Z,9.242426
2023-04-02T03:45:27.469Z,9.242413
2023-04-02T03:46:27.397Z,9.242409
2023-04-02T03:47:27.395Z,9.242368
2023-04-02T03:48:27.362Z,9.242352
2023-04-02T03:49:27.426Z,9.242416
2023-04-02T03:50:27.383Z,9.242307
2023-04-02T03:51:27.352Z,9.242341
2023-04-02T03:52:27.367Z,9.242342
2023-04-02T03:53:27.319Z,9.242338
2023-04-02T03:54:27.322Z,9.242290
2023-04-02T03:55:27.333Z,9.242332
2023-04-02T03:56:27.303Z,9.242322
2023-04-02T03:57:27.412Z,9.242311
2023-04-02T03:58:27.297Z,9.242325
2023-04-02T03:59:27.285Z,9.242389
2023-04-02T04:00:27.312Z,9.242389
2023-04-02T04:01:27.513Z,9.242321
2023-04-02T04:02:27.391Z,9.242332
2023-04-02T04:03:27.259Z,9.242323
2023-04-02T04:04:27.291Z,9.242361
2023-04-02T04:05:27.279Z,9.242363
2023-04-02T04:06:27.258Z,9.242320
2023-04-02T04:07:27.219Z,9.242416
2023-04-02T04:08:27.236Z,9.242291
2023-04-02T04:09:27.303Z,9.242294
2023-04-02T04:10:27.262Z,9.242294
2023-04-02T04:11:27.222Z,9.242345
2023-04-02T04:12:27.194Z,9.242316
2023-04-02T04:13:27.200Z,9.242333
2023-04-02T04:14:27.170Z,9.242401
2023-04-02T04:15:27.193Z,9.242332
2023-04-02T04:16:27.169Z,9.242374
2023-04-02T04:17:27.149Z,9.242348
2023-04-02T04:18:27.169Z,9.242450
2023-04-02T04:19:27.130Z,9.242447
2023-04-02T04:20:27.168Z,9.242214
2023-04-02T04:21:27.106Z,9.242156
2023-04-02T04:22:27.110Z,9.242094
2023-04-02T04:23:27.116Z,9.242140
2023-04-02T04:24:27.118Z,9.242453
2023-04-02T04:25:27.122Z,9.242236
2023-04-02T04:26:27.082Z,9.242325
2023-04-02T04:27:27.087Z,9.242318
2023-04-02T04:28:27.084Z,9.242352
2023-04-02T04:29:27.106Z,9.242453
2023-04-02T04:30:27.090Z,9.242409
2023-04-02T04:31:27.133Z,9.242475
2023-04-02T04:32:27.222Z,9.242478
2023-04-02T04:33:27.074Z,9.242347
2023-04-02T04:34:27.015Z,9.242262
2023-04-02T04:35:27.052Z,9.242210
2023-04-02T04:36:27.036Z,9.242188
2023-04-02T04:37:27.068Z,9.242408
2023-04-02T04:38:27.072Z,9.242380
2023-04-02T04:39:27.127Z,9.242443
2023-04-02T04:40:27.114Z,9.242326
2023-04-02T04:41:26.969Z,9.242234
2023-04-02T04:42:26.986Z,9.242249
2023-04-02T04:43:26.962Z,9.242232
2023-04-02T04:44:26.958Z,9.242375
2023-04-02T04:45:26.982Z,9.242429
2023-04-02T04:46:27.047Z,9.242342
2023-04-02T04:47:26.967Z,9.242348
2023-04-02T04:48:26.940Z,9.242264
2023-04-02T04:49:26.930Z,9.242153
2023-04-02T04:50:26.939Z,9.242143
2023-04-02T04:51:26.910Z,9.242345
2023-04-02T04:52:26.909Z,9.242393
2023-04-02T04:53:26.894Z,9.242359
2023-04-02T04:54:26.871Z,9.242323
2023-04-02T04:55:26.964Z,9.242518
2023-04-02T04:56:26.881Z,9.242391
2023-04-02T04:57:26.928Z,9.242356
2023-04-02T04:58:26.862Z,9.242365
2023-04-02T04:59:26.840Z,9.242365
2023-04-02T05:00:26.893Z,9.242372
2023-04-02T05:01:26.866Z,9.242388
2023-04-02T05:02:26.874Z,9.242387
2023-04-02T05:03:26.821Z,9.242452
2023-04-02T05:04:26.841Z,9.242471
2023-04-02T05:05:26.855Z,9.242430
2023-04-02T05:06:26.793Z,9.242359
2023-04-02T05:07:26.791Z,9.242380
2023-04-02T05:08:26.788Z,9.242408
2023-04-02T05:09:26.776Z,9.242411
2023-04-02T05:10:26.784Z,9.242407
2023-04-02T05:11:26.764Z,9.242424
2023-04-02T05:12:27.420Z,9.242428
2023-04-02T05:13:26.749Z,9.242419
2023-04-02T05:14:26.731Z,9.242435
2023-04-02T05:15:26.781Z,9.242437
2023-04-02T05:16:26.772Z,9.242469
2023-04-02T05:17:26.747Z,9.242310
2023-04-02T05:18:26.721Z,9.242384
2023-04-02T05:19:26.695Z,9.242351
2023-04-02T05:20:26.699Z,9.242375
2023-04-02T05:21:26.697Z,9.242366
2023-04-02T05:22:26.716Z,9.242349
2023-04-02T05:23:26.692Z,9.242352
2023-04-02T05:24:26.659Z,9.242355
2023-04-02T05:25:26.685Z,9.242435
2023-04-02T05:26:26.685Z,9.242357
2023-04-02T05:27:26.686Z,9.242278
2023-04-02T05:28:26.674Z,9.242400
2023-04-02T05:29:26.700Z,9.242338
2023-04-02T05:30:27.548Z,9.242319
2023-04-02T05:31:27.124Z,9.242313
2023-04-02T05:32:26.654Z,9.242287
2023-04-02T05:33:27.448Z,9.242339
2023-04-02T05:34:26.639Z,9.242326
2023-04-02T05:35:26.621Z,9.242196
2023-04-02T05:36:26.648Z,9.242243
2023-04-02T05:37:26.566Z,9.242263
2023-04-02T05:38:26.548Z,9.242295
2023-04-02T05:39:26.567Z,9.242322
2023-04-02T05:40:26.568Z,9.242335
2023-04-02T05:41:27.463Z,9.242244
2023-04-02T05:42:26.579Z,9.242235
2023-04-02T05:43:26.548Z,9.242317
2023-04-02T05:44:26.562Z,9.242430
2023-04-02T05:45:26.583Z,9.242254
2023-04-02T05:46:26.637Z,9.242248
2023-04-02T05:47:26.590Z,9.242244
2023-04-02T05:48:26.493Z,9.242434
2023-04-02T05:49:26.531Z,9.242343
2023-04-02T05:50:26.503Z,9.242307
2023-04-02T05:51:26.571Z,9.242352
2023-04-02T05:52:26.473Z,9.242379
2023-04-02T05:53:26.516Z,9.242398
2023-04-02T05:54:26.489Z,9.242408
2023-04-02T05:55:26.451Z,9.242255
2023-04-02T05:56:26.507Z,9.242311
2023-04-02T05:57:39.420Z,9.242469
2023-04-02T05:58:35.416Z,9.242386
2023-04-02T05:59:28.439Z,9.242321
2023-04-02T06:00:26.429Z,9.242266
2023-04-02T06:01:26.424Z,9.242218
2023-04-02T06:02:26.504Z,9.242317
2023-04-02T06:03:26.440Z,9.242356
2023-04-02T06:04:26.374Z,9.242511
2023-04-02T06:05:26.369Z,9.242470
2023-04-02T06:06:26.489Z,9.242331
2023-04-02T06:07:26.352Z,9.242265
2023-04-02T06:08:26.362Z,9.242352
2023-04-02T06:09:26.333Z,9.242299
2023-04-02T06:10:26.353Z,9.242229
2023-04-02T06:11:26.344Z,9.242239
2023-04-02T06:12:26.310Z,9.242279
2023-04-02T06:13:26.318Z,9.242237
2023-04-02T06:14:26.315Z,9.242248
2023-04-02T06:15:26.318Z,9.242227
2023-04-02T06:16:26.353Z,9.242046
2023-04-02T06:17:26.340Z,9.242100
2023-04-02T06:18:26.287Z,9.242110
2023-04-02T06:19:26.270Z,9.242196
2023-04-02T06:20:26.255Z,9.242254
2023-04-02T06:21:26.251Z,9.242344
2023-04-02T06:22:26.299Z,9.242337
2023-04-02T06:23:26.234Z,9.242304
2023-04-02T06:24:26.284Z,9.242274
2023-04-02T06:25:26.202Z,9.242270
2023-04-02T06:26:26.233Z,9.242306
2023-04-02T06:27:26.354Z,9.242264
2023-04-02T06:28:27.148Z,9.242268
2023-04-02T06:29:26.624Z,9.242418
2023-04-02T06:30:26.995Z,9.242354
2023-04-02T06:31:26.288Z,9.242368
2023-04-02T06:32:26.225Z,9.242592
2023-04-02T06:33:26.155Z,9.242384
2023-04-02T06:34:26.158Z,9.242523
2023-04-02T06:35:27.914Z,9.242430
2023-04-02T06:36:27.238Z,9.242316
2023-04-02T06:37:26.541Z,9.242257
2023-04-02T06:38:26.237Z,9.242435
2023-04-02T06:39:26.233Z,9.242457
2023-04-02T06:40:26.108Z,9.242471
2023-04-02T06:41:26.131Z,9.242408
2023-04-02T06:42:26.106Z,9.242361
2023-04-02T06:43:26.101Z,9.242386
2023-04-02T06:44:26.079Z,9.242374
2023-04-02T06:45:27.300Z,9.242358
2023-04-02T06:46:26.166Z,9.242269
2023-04-02T06:47:27.184Z,9.242366
2023-04-02T06:48:26.051Z,9.242417
2023-04-02T06:49:26.060Z,9.242365
2023-04-02T06:50:26.131Z,9.242428
2023-04-02T06:51:26.066Z,9.242417
2023-04-02T06:52:26.036Z,9.242447
2023-04-02T06:53:26.035Z,9.242412
2023-04-02T06:54:26.019Z,9.242422
2023-04-02T06:55:27.066Z,9.242367
2023-04-02T06:56:25.999Z,9.242387
2023-04-02T06:57:26.071Z,9.242372
2023-04-02T06:58:26.008Z,9.242364
2023-04-02T06:59:27.379Z,9.242350
2023-04-02T07:00:26.006Z,9.242394
2023-04-02T07:01:26.045Z,9.242413
2023-04-02T07:02:25.969Z,9.242371
2023-04-02T07:03:25.936Z,9.242317
2023-04-02T07:04:25.965Z,9.242357
2023-04-02T07:05:25.927Z,9.242223
2023-04-02T07:06:25.925Z,9.242333
2023-04-02T07:07:25.902Z,9.242357
2023-04-02T07:08:25.918Z,9.242280
2023-04-02T07:09:25.895Z,9.242385
2023-04-02T07:10:25.905Z,9.242313
2023-04-02T07:11:25.907Z,9.242418
2023-04-02T07:12:25.880Z,9.242344
2023-04-02T07:13:25.866Z,9.242300
2023-04-02T07:14:25.875Z,9.242327
2023-04-02T07:15:25.865Z,9.242294
2023-04-02T07:16:26.972Z,9.242355
2023-04-02T07:17:25.866Z,9.242356
2023-04-02T07:18:25.851Z,9.242348
2023-04-02T07:19:25.834Z,9.242382
2023-04-02T07:20:25.812Z,9.242375
2023-04-02T07:21:25.864Z,9.242348
2023-04-02T07:22:25.793Z,9.242401
2023-04-02T07:23:25.789Z,9.242479
2023-04-02T07:24:25.791Z,9.242379
2023-04-02T07:25:25.795Z,9.242293
2023-04-02T07:26:25.805Z,9.242373
2023-04-02T07:27:25.778Z,9.242268
2023-04-02T07:28:26.234Z,9.242435
2023-04-02T07:29:25.866Z,9.242455
2023-04-02T07:30:25.751Z,9.242514
2023-04-02T07:31:26.145Z,9.242352
2023-04-02T07:32:25.769Z,9.242392
2023-04-02T07:33:25.816Z,9.242368
2023-04-02T07:34:25.705Z,9.242337
2023-04-02T07:35:25.701Z,9.242373
2023-04-02T07:36:25.724Z,9.242396
2023-04-02T07:37:25.683Z,9.242446
2023-04-02T07:38:25.683Z,9.242397
2023-04-02T07:39:25.700Z,9.242367
2023-04-02T07:40:25.670Z,9.242397
2023-04-02T07:41:25.674Z,9.242412
2023-04-02T07:42:25.654Z,9.242447
2023-04-02T07:43:25.646Z,9.242398
2023-04-02T07:44:25.625Z,9.242464
2023-04-02T07:45:25.632Z,9.242369
2023-04-02T07:46:25.689Z,9.242264
2023-04-02T07:47:25.643Z,9.242324
2023-04-02T07:48:25.631Z,9.242312
2023-04-02T07:49:25.603Z,9.242329
2023-04-02T07:50:25.624Z,9.242345
2023-04-02T07:51:25.665Z,9.242162
2023-04-02T07:52:25.722Z,9.242425
2023-04-02T07:53:25.559Z,9.242282
2023-04-02T07:54:25.562Z,9.242374
2023-04-02T07:55:25.555Z,9.242382
2023-04-02T07:56:26.583Z,9.242378
2023-04-02T07:57:25.601Z,9.242312
2023-04-02T07:58:25.526Z,9.242419
2023-04-02T07:59:25.534Z,9.242411
2023-04-02T08:00:25.895Z,9.242457
2023-04-02T08:01:25.583Z,9.242296
2023-04-02T08:02:25.540Z,9.242343
2023-04-02T08:03:25.626Z,9.242314
2023-04-02T08:04:25.491Z,9.242386
2023-04-02T08:05:25.500Z,9.242399
2023-04-02T08:06:25.503Z,9.242327
2023-04-02T08:07:26.384Z,9.242393
2023-04-02T08:08:25.517Z,9.242418
2023-04-02T08:09:25.534Z,9.242437
2023-04-02T08:10:25.462Z,9.242422
2023-04-02T08:11:25.504Z,9.242424
2023-04-02T08:12:25.483Z,9.242365
2023-04-02T08:13:25.424Z,9.242464
2023-04-02T08:14:25.404Z,9.242460
2023-04-02T08:15:25.506Z,9.242388
2023-04-02T08:16:25.431Z,9.242341
2023-04-02T08:17:25.442Z,9.242436
2023-04-02T08:18:25.410Z,9.242395
2023-04-02T08:19:25.394Z,9.242397
2023-04-02T08:20:25.370Z,9.242292
2023-04-02T08:21:25.361Z,9.242406
2023-04-02T08:22:25.429Z,9.242360
2023-04-02T08:23:25.380Z,9.242383
2023-04-02T08:24:25.326Z,9.242368
2023-04-02T08:25:25.800Z,9.242393
2023-04-02T08:26:28.901Z,9.242343
2023-04-02T08:27:25.334Z,9.242339
2023-04-02T08:28:25.337Z,9.242366
2023-04-02T08:29:25.288Z,9.242443
2023-04-02T08:30:25.606Z,9.242345
2023-04-02T08:31:25.401Z,9.242383
2023-04-02T08:32:25.298Z,9.242442
2023-04-02T08:33:25.276Z,9.242401
2023-04-02T08:34:25.259Z,9.242420
2023-04-02T08:35:25.281Z,9.242434
2023-04-02T08:36:25.406Z,9.242377
2023-04-02T08:37:25.279Z,9.242229
2023-04-02T08:38:25.233Z,9.242138
2023-04-02T08:39:25.278Z,9.242157
2023-04-02T08:40:25.239Z,9.242127
2023-04-02T08:41:25.228Z,9.242167
2023-04-02T08:42:25.209Z,9.242199
2023-04-02T08:43:25.200Z,9.242216
2023-04-02T08:44:25.182Z,9.242239
2023-04-02T08:45:25.756Z,9.242330
2023-04-02T08:46:26.246Z,9.242339
2023-04-02T08:47:26.785Z,9.242364
2023-04-02T08:48:25.181Z,9.242175
2023-04-02T08:49:25.137Z,9.242199
2023-04-02T08:50:25.138Z,9.242191
2023-04-02T08:51:25.156Z,9.242350
2023-04-02T08:52:25.145Z,9.242273
2023-04-02T08:53:25.118Z,9.242194
2023-04-02T08:54:25.132Z,9.242155
2023-04-02T08:55:25.129Z,9.242062
2023-04-02T08:56:25.146Z,9.241955
2023-04-02T08:57:25.922Z,9.241994
2023-04-02T08:58:25.076Z,9.242217
2023-04-02T08:59:25.084Z,9.242168
2023-04-02T09:00:25.056Z,9.242178
2023-04-02T09:01:26.115Z,9.242092
2023-04-02T09:02:25.131Z,9.242068
2023-04-02T09:03:25.069Z,9.242209
2023-04-02T09:04:25.070Z,9.242208
2023-04-02T09:05:25.036Z,9.242160
2023-04-02T09:06:25.013Z,9.242090
2023-04-02T09:07:25.072Z,9.242305
2023-04-02T09:08:25.024Z,9.242293
2023-04-02T09:09:25.056Z,9.242066
2023-04-02T09:10:25.002Z,9.242118
2023-04-02T09:11:25.021Z,9.242150
2023-04-02T09:12:25.013Z,9.242197
2023-04-02T09:13:24.967Z,9.242151
2023-04-02T09:14:25.146Z,9.242109
2023-04-02T09:15:24.949Z,9.242267
2023-04-02T09:16:25.026Z,9.242270
2023-04-02T09:17:24.990Z,9.242311
2023-04-02T09:18:24.996Z,9.242350
2023-04-02T09:19:24.922Z,9.242372
2023-04-02T09:20:24.949Z,9.242306
2023-04-02T09:21:24.915Z,9.242362
2023-04-02T09:22:24.932Z,9.242275
2023-04-02T09:23:24.909Z,9.242385
2023-04-02T09:24:24.882Z,9.242332
2023-04-02T09:25:24.885Z,9.242355
2023-04-02T09:26:24.859Z,9.242407
2023-04-02T09:27:24.885Z,9.242408
2023-04-02T09:28:24.857Z,9.242423
2023-04-02T09:29:24.841Z,9.242399
2023-04-02T09:30:25.890Z,9.242449
2023-04-02T09:31:24.893Z,9.242401
2023-04-02T09:32:24.866Z,9.242387
2023-04-02T09:33:24.859Z,9.242416
2023-04-02T09:34:24.814Z,9.242468
2023-04-02T09:35:26.812Z,9.242432
2023-04-02T09:36:25.839Z,9.242407
2023-04-02T09:37:24.815Z,9.242384
2023-04-02T09:38:24.787Z,9.242407
2023-04-02T09:39:24.778Z,9.242350
2023-04-02T09:40:24.765Z,9.242329
2023-04-02T09:41:24.766Z,9.242385
2023-04-02T09:42:24.760Z,9.242397
2023-04-02T09:43:24.773Z,9.242306
2023-04-02T09:44:24.790Z,9.242213
2023-04-02T09:45:24.745Z,9.242348
2023-04-02T09:46:24.778Z,9.242411
2023-04-02T09:47:24.779Z,9.242394
2023-04-02T09:48:24.712Z,9.242368
2023-04-02T09:49:24.721Z,9.242253
2023-04-02T09:50:24.698Z,9.242331
2023-04-02T09:51:24.724Z,9.242250
2023-04-02T09:52:24.734Z,9.242420
2023-04-02T09:53:24.670Z,9.242397
2023-04-02T09:54:24.677Z,9.242354
2023-04-02T09:55:24.664Z,9.242324
2023-04-02T09:56:24.665Z,9.242378
2023-04-02T09:57:24.754Z,9.242410
2023-04-02T09:58:24.636Z,9.242416
2023-04-02T09:59:24.634Z,9.242403
2023-04-02T10:00:32.110Z,9.242359
2023-04-02T10:01:26.648Z,9.242370
2023-04-02T10:02:24.655Z,9.242365
2023-04-02T10:03:24.664Z,9.242351
2023-04-02T10:04:26.276Z,9.242293
2023-04-02T10:05:39.399Z,9.242324
2023-04-02T10:06:26.588Z,9.242328
2023-04-02T10:07:24.578Z,9.242300
2023-04-02T10:08:24.558Z,9.242346
2023-04-02T10:09:24.545Z,9.242377
2023-04-02T10:10:25.929Z,9.242400
2023-04-02T10:11:28.784Z,9.242428
2023-04-02T10:12:25.535Z,9.242397
2023-04-02T10:13:24.536Z,9.242381
2023-04-02T10:14:25.516Z,9.242393
2023-04-02T10:15:24.526Z,9.242423
2023-04-02T10:16:25.765Z,9.242359
2023-04-02T10:17:24.572Z,9.242378
2023-04-02T10:18:24.495Z,9.242393
2023-04-02T10:19:24.476Z,9.242465
2023-04-02T10:20:24.484Z,9.242482
2023-04-02T10:21:24.455Z,9.242509
2023-04-02T10:22:24.484Z,9.242331
2023-04-02T10:23:24.490Z,9.242319
2023-04-02T10:24:24.436Z,9.242426
2023-04-02T10:25:24.460Z,9.242277
2023-04-02T10:26:24.441Z,9.242019
2023-04-02T10:27:24.438Z,9.242093
2023-04-02T10:28:24.401Z,9.242231
2023-04-02T10:29:24.419Z,9.242287
2023-04-02T10:30:24.404Z,9.242296
2023-04-02T10:31:24.480Z,9.242250
2023-04-02T10:32:24.453Z,9.242236
2023-04-02T10:33:24.374Z,9.242321
2023-04-02T10:34:24.382Z,9.242371
2023-04-02T10:35:24.385Z,9.242393
2023-04-02T10:36:24.365Z,9.242420
2023-04-02T10:37:24.538Z,9.242391
2023-04-02T10:38:24.343Z,9.242413
2023-04-02T10:39:24.337Z,9.242355
2023-04-02T10:40:24.327Z,9.242393
2023-04-02T10:41:24.339Z,9.242422
2023-04-02T10:42:24.334Z,9.242393
2023-04-02T10:43:24.321Z,9.242369
2023-04-02T10:44:24.299Z,9.242423
2023-04-02T10:45:24.301Z,9.242611
2023-04-02T10:46:25.562Z,9.242493
2023-04-02T10:47:25.475Z,9.242459
2023-04-02T10:48:24.272Z,9.242450
2023-04-02T10:49:24.291Z,9.242462
2023-04-02T10:50:24.254Z,9.242439
2023-04-02T10:51:24.253Z,9.242352
2023-04-02T10:52:24.251Z,9.242391
2023-04-02T10:53:24.294Z,9.242376
2023-04-02T10:54:24.253Z,9.242397
2023-04-02T10:55:24.237Z,9.242413
2023-04-02T10:56:24.228Z,9.242395
2023-04-02T10:57:24.260Z,9.242358
2023-04-02T10:58:24.266Z,9.242318
2023-04-02T10:59:24.199Z,9.242386
2023-04-02T11:00:24.821Z,9.242409
2023-04-02T11:01:24.231Z,9.242396
2023-04-02T11:02:24.277Z,9.242378
2023-04-02T11:03:24.405Z,9.242401
2023-04-02T11:04:24.151Z,9.242381
2023-04-02T11:05:24.600Z,9.242383
2023-04-02T11:06:24.143Z,9.242401
2023-04-02T11:07:24.222Z,9.242385
2023-04-02T11:08:24.172Z,9.242555
2023-04-02T11:09:24.137Z,9.242409
2023-04-02T11:10:24.113Z,9.242426
2023-04-02T11:11:24.134Z,9.242391
2023-04-02T11:12:24.156Z,9.242435
2023-04-02T11:13:24.103Z,9.242347
2023-04-02T11:14:24.102Z,9.242321
2023-04-02T11:15:24.100Z,9.242420
2023-04-02T11:16:24.139Z,9.242532
2023-04-02T11:17:24.117Z,9.242276
2023-04-02T11:18:24.067Z,9.242231
2023-04-02T11:19:24.074Z,9.242265
2023-04-02T11:20:24.051Z,9.242234
2023-04-02T11:21:24.034Z,9.242456
2023-04-02T11:22:24.072Z,9.242175
2023-04-02T11:23:24.042Z,9.242282
2023-04-02T11:24:24.051Z,9.242334
2023-04-02T11:25:23.998Z,9.242213
2023-04-02T11:26:23.989Z,9.242347
2023-04-02T11:27:24.031Z,9.242227
2023-04-02T11:28:25.127Z,9.242183
2023-04-02T11:29:23.973Z,9.242338
2023-04-02T11:30:23.963Z,9.242264
2023-04-02T11:31:23.981Z,9.242288
2023-04-02T11:32:24.032Z,9.242306
2023-04-02T11:33:33.889Z,9.242322
2023-04-02T11:34:25.937Z,9.242322
2023-04-02T11:35:23.924Z,9.242312
2023-04-02T11:36:23.991Z,9.242292
2023-04-02T11:37:23.901Z,9.242315
2023-04-02T11:38:23.920Z,9.242265
2023-04-02T11:39:23.896Z,9.242295
2023-04-02T11:40:23.891Z,9.242362
2023-04-02T11:41:23.891Z,9.242344
2023-04-02T11:42:23.893Z,9.242451
2023-04-02T11:43:23.897Z,9.242295
2023-04-02T11:44:23.875Z,9.242323